Time;durP1;ratioP1;P1;durP2;ratioP2;P2;SDS_P1;SDS_P2;PMS_P1;PMS_P2;Temp;Humidity;BMP_temperature;BMP_pressure;BME280_temperature;BME280_humidity;BME280_pressure;Samples;Min_cycle;Max_cycle;Signal;HPM_P1;HPM_P2
2023/07/04 00:00:35;;;;;;;0.00;0.00;;;13.60;99.90;;;;;;5147676;27;20534;-67
2023/07/04 00:03:00;;;;;;;0.25;0.15;;;13.60;99.90;;;;;;5142606;27;20035;-67
2023/07/04 00:05:26;;;;;;;0.00;0.00;;;13.60;99.90;;;;;;5140136;27;20524;-67
2023/07/04 00:07:52;;;;;;;0.00;0.00;;;13.60;99.90;;;;;;5142357;27;20459;-67
2023/07/04 00:10:19;;;;;;;0.00;0.00;;;13.60;99.90;;;;;;5142231;27;20045;-67
2023/07/04 00:12:45;;;;;;;0.00;0.00;;;13.70;99.90;;;;;;5139480;27;20039;-67
2023/07/04 00:15:13;;;;;;;0.10;0.10;;;13.70;99.90;;;;;;5141813;27;20050;-67
2023/07/04 00:17:39;;;;;;;0.10;0.10;;;13.70;99.90;;;;;;5148298;27;20524;-67
2023/07/04 00:20:06;;;;;;;0.00;0.00;;;13.70;99.90;;;;;;5148358;27;20049;-67
2023/07/04 00:22:33;;;;;;;0.00;0.00;;;13.70;99.90;;;;;;5133194;27;20038;-67
2023/07/04 00:24:59;;;;;;;0.00;0.00;;;13.70;99.90;;;;;;5145378;27;20445;-67
2023/07/04 00:27:25;;;;;;;0.52;0.52;;;13.80;99.90;;;;;;5147655;27;20074;-67
2023/07/04 00:29:50;;;;;;;0.30;0.30;;;13.70;99.90;;;;;;5149716;27;20042;-67
2023/07/04 00:32:16;;;;;;;0.13;0.13;;;13.80;99.90;;;;;;5144263;27;20047;-67
2023/07/04 00:34:45;;;;;;;0.00;0.00;;;13.70;99.90;;;;;;5145615;27;20060;-67
2023/07/04 00:37:11;;;;;;;0.30;0.30;;;13.70;99.90;;;;;;5150309;27;20137;-66
2023/07/04 00:39:37;;;;;;;0.00;0.00;;;13.80;99.90;;;;;;5125337;27;20061;-66
2023/07/04 00:42:07;;;;;;;0.00;0.00;;;13.70;99.90;;;;;;5150571;27;20035;-67
2023/07/04 00:44:37;;;;;;;1.33;1.27;;;13.70;99.90;;;;;;5150650;27;20402;-67
2023/07/04 00:47:15;;;;;;;0.00;0.00;;;13.70;99.90;;;;;;5140086;27;20042;-67
2023/07/04 00:49:44;;;;;;;0.00;0.00;;;13.70;99.90;;;;;;5148738;27;20050;-66
2023/07/04 00:52:32;;;;;;;0.00;0.00;;;13.70;99.90;;;;;;5143579;27;20062;-67
2023/07/04 00:55:05;;;;;;;0.20;0.20;;;13.70;99.90;;;;;;5148335;27;20035;-67
2023/07/04 00:57:32;;;;;;;0.00;0.00;;;13.70;99.90;;;;;;5139943;27;20042;-67
2023/07/04 01:00:14;;;;;;;0.08;0.08;;;13.70;99.90;;;;;;5125459;27;20121;-67
2023/07/04 01:02:40;;;;;;;0.00;0.00;;;13.80;99.90;;;;;;5149224;27;20027;-67
2023/07/04 01:05:06;;;;;;;0.13;0.13;;;13.80;99.90;;;;;;5143853;27;20049;-67
2023/07/04 01:07:41;;;;;;;0.00;0.00;;;13.80;99.90;;;;;;5143760;27;20136;-67
2023/07/04 01:10:10;;;;;;;0.00;0.00;;;13.80;99.90;;;;;;5145913;27;20043;-67
2023/07/04 01:12:36;;;;;;;0.03;0.03;;;13.80;99.90;;;;;;5132334;27;20069;-66
2023/07/04 01:15:02;;;;;;;0.00;0.00;;;13.80;99.90;;;;;;5133167;27;20545;-66
2023/07/04 01:17:29;;;;;;;0.45;0.45;;;13.70;99.90;;;;;;5126470;27;20133;-67
2023/07/04 01:19:56;;;;;;;0.88;0.88;;;13.70;99.90;;;;;;5144838;27;20027;-66
2023/07/04 01:22:47;;;;;;;0.00;0.00;;;13.80;99.90;;;;;;5150971;27;20042;-66
2023/07/04 01:25:37;;;;;;;0.93;0.25;;;13.80;99.90;;;;;;5155602;27;20031;-66
2023/07/04 01:28:04;;;;;;;0.00;0.00;;;13.80;99.90;;;;;;5147933;27;20043;-66
2023/07/04 01:30:33;;;;;;;0.05;0.05;;;13.90;99.90;;;;;;5145177;27;20039;-67
2023/07/04 01:32:59;;;;;;;0.00;0.00;;;13.90;99.90;;;;;;5129286;27;20051;-67
2023/07/04 01:35:26;;;;;;;0.10;0.10;;;13.90;99.90;;;;;;5154356;27;20061;-67
2023/07/04 01:37:52;;;;;;;0.00;0.00;;;13.90;99.90;;;;;;5144984;27;20140;-67
2023/07/04 01:40:19;;;;;;;0.00;0.00;;;13.90;99.90;;;;;;5151955;27;20439;-67
2023/07/04 01:42:45;;;;;;;1.67;1.13;;;13.90;99.90;;;;;;5126650;27;20046;-67
2023/07/04 01:45:11;;;;;;;0.00;0.00;;;13.90;99.90;;;;;;5148743;27;20046;-67
2023/07/04 01:47:38;;;;;;;0.10;0.10;;;13.90;99.90;;;;;;5148242;27;20039;-67
2023/07/04 01:50:06;;;;;;;0.00;0.00;;;13.80;99.90;;;;;;5152153;27;20042;-67
2023/07/04 01:52:32;;;;;;;0.00;0.00;;;13.80;99.90;;;;;;5145434;27;20050;-67
2023/07/04 01:54:58;;;;;;;0.00;0.00;;;13.90;99.90;;;;;;5153686;27;20705;-67
2023/07/04 01:57:25;;;;;;;0.10;0.10;;;13.80;99.90;;;;;;5152900;27;20042;-67
2023/07/04 01:59:51;;;;;;;0.10;0.10;;;13.90;99.90;;;;;;5150134;27;20050;-67
2023/07/04 02:02:17;;;;;;;0.00;0.00;;;13.90;99.90;;;;;;5153097;27;20074;-67
2023/07/04 02:04:42;;;;;;;0.10;0.10;;;13.90;99.90;;;;;;5151409;27;20500;-67
2023/07/04 02:07:08;;;;;;;0.00;0.00;;;13.90;99.90;;;;;;5150574;27;20121;-67
2023/07/04 02:09:34;;;;;;;0.20;0.20;;;13.90;99.90;;;;;;5152116;27;20647;-66
2023/07/04 02:11:59;;;;;;;0.00;0.00;;;13.90;99.90;;;;;;5130898;27;20143;-67
2023/07/04 02:14:25;;;;;;;0.00;0.00;;;13.80;99.90;;;;;;5146440;27;20039;-67
2023/07/04 02:16:52;;;;;;;0.00;0.00;;;13.80;99.90;;;;;;5147827;27;20047;-67
2023/07/04 02:19:17;;;;;;;0.00;0.00;;;13.80;99.90;;;;;;5150022;27;20834;-66
2023/07/04 02:21:43;;;;;;;0.00;0.00;;;13.80;99.90;;;;;;5134302;27;20042;-67
2023/07/04 02:24:09;;;;;;;0.00;0.00;;;13.90;99.90;;;;;;5148210;27;20045;-67
2023/07/04 02:26:34;;;;;;;0.00;0.00;;;13.80;99.90;;;;;;5153291;27;20049;-67
2023/07/04 02:29:00;;;;;;;0.00;0.00;;;13.70;99.90;;;;;;5124646;27;20043;-67
2023/07/04 02:31:26;;;;;;;0.10;0.10;;;13.80;99.90;;;;;;5146014;27;20037;-67
2023/07/04 02:33:52;;;;;;;0.00;0.00;;;13.80;99.90;;;;;;5147868;27;20085;-67
2023/07/04 02:36:18;;;;;;;0.05;0.05;;;13.80;99.90;;;;;;5151574;27;20045;-67
2023/07/04 02:38:45;;;;;;;0.03;0.03;;;13.80;99.90;;;;;;5128041;27;20043;-67
2023/07/04 02:41:11;;;;;;;0.00;0.00;;;13.80;99.90;;;;;;5153457;27;20085;-67
2023/07/04 02:43:37;;;;;;;0.57;0.57;;;13.80;99.90;;;;;;5147457;27;20043;-67
2023/07/04 02:46:05;;;;;;;0.20;0.20;;;13.80;99.90;;;;;;5132617;27;20038;-67
2023/07/04 02:48:32;;;;;;;0.00;0.00;;;13.80;99.90;;;;;;5140031;27;20043;-67
2023/07/04 02:50:57;;;;;;;0.20;0.20;;;13.80;99.90;;;;;;5133396;27;20049;-67
2023/07/04 02:53:23;;;;;;;0.17;0.17;;;13.70;99.90;;;;;;5141647;27;20055;-66
2023/07/04 02:55:50;;;;;;;0.00;0.00;;;13.70;99.90;;;;;;5120565;27;20046;-66
2023/07/04 02:58:16;;;;;;;0.08;0.08;;;13.60;99.90;;;;;;5153645;27;20038;-66
2023/07/04 03:00:44;;;;;;;0.00;0.00;;;13.60;99.90;;;;;;5149402;27;20523;-67
2023/07/04 03:03:10;;;;;;;0.85;0.55;;;13.60;99.90;;;;;;5128382;27;20043;-66
2023/07/04 03:05:36;;;;;;;0.30;0.30;;;13.50;99.90;;;;;;5150875;27;20114;-67
2023/07/04 03:08:03;;;;;;;0.00;0.00;;;13.30;99.90;;;;;;5143672;27;20551;-67
2023/07/04 03:10:28;;;;;;;0.00;0.00;;;13.30;99.90;;;;;;5142373;27;20070;-67
2023/07/04 03:12:54;;;;;;;0.00;0.00;;;13.20;99.90;;;;;;5139957;27;20088;-66
2023/07/04 03:15:20;;;;;;;0.00;0.00;;;13.20;99.90;;;;;;5125542;27;20088;-66
2023/07/04 03:17:45;;;;;;;0.00;0.00;;;13.00;99.90;;;;;;5145930;27;20137;-67
2023/07/04 03:20:12;;;;;;;0.00;0.00;;;12.90;99.90;;;;;;5148163;27;20042;-67
2023/07/04 03:22:42;;;;;;;0.00;0.00;;;12.90;99.90;;;;;;5116311;27;20069;-66
2023/07/04 03:25:08;;;;;;;0.00;0.00;;;12.90;99.90;;;;;;5140863;27;20084;-67
2023/07/04 03:27:36;;;;;;;0.00;0.00;;;13.00;99.90;;;;;;5130747;27;20480;-67
2023/07/04 03:30:03;;;;;;;0.03;0.03;;;12.90;99.90;;;;;;5123431;27;20039;-67
2023/07/04 03:32:29;;;;;;;0.10;0.10;;;12.80;99.90;;;;;;5149625;27;20121;-66
2023/07/04 03:35:00;;;;;;;0.00;0.00;;;12.90;99.90;;;;;;5119870;27;20130;-66
2023/07/04 03:37:27;;;;;;;0.00;0.00;;;12.90;99.90;;;;;;5145377;27;20042;-67
2023/07/04 03:39:53;;;;;;;0.00;0.00;;;12.80;99.90;;;;;;5139021;27;20023;-67
2023/07/04 03:42:18;;;;;;;0.00;0.00;;;12.80;99.90;;;;;;5148764;27;20531;-67
2023/07/04 03:44:44;;;;;;;0.00;0.00;;;12.90;99.90;;;;;;5147689;27;20058;-67
2023/07/04 03:47:10;;;;;;;0.00;0.00;;;12.90;99.90;;;;;;5148564;27;20049;-67
2023/07/04 03:49:36;;;;;;;0.00;0.00;;;12.80;99.90;;;;;;5131513;27;20042;-67
2023/07/04 03:52:02;;;;;;;0.03;0.03;;;12.90;99.90;;;;;;5149269;27;20113;-67
2023/07/04 03:54:27;;;;;;;0.28;0.28;;;12.90;99.90;;;;;;5148167;27;20601;-67
2023/07/04 03:56:53;;;;;;;0.32;0.32;;;12.80;99.90;;;;;;5144258;27;20530;-67
2023/07/04 03:59:18;;;;;;;0.00;0.00;;;12.80;99.90;;;;;;5146398;27;20095;-67
2023/07/04 04:01:45;;;;;;;0.00;0.00;;;12.90;99.90;;;;;;5147557;27;20481;-67
2023/07/04 04:04:11;;;;;;;0.10;0.10;;;12.90;99.90;;;;;;5139055;27;20043;-67
2023/07/04 04:06:36;;;;;;;0.10;0.10;;;13.00;99.90;;;;;;5147087;27;20107;-67
2023/07/04 04:09:02;;;;;;;0.00;0.00;;;13.00;99.90;;;;;;5138051;27;20051;-67
2023/07/04 04:11:28;;;;;;;0.10;0.10;;;13.00;99.90;;;;;;5141834;27;20043;-67
2023/07/04 04:14:12;;;;;;;0.00;0.00;;;13.10;99.90;;;;;;5147809;27;20520;-67
2023/07/04 04:16:44;;;;;;;0.03;0.03;;;13.10;99.90;;;;;;5151017;27;20125;-67
2023/07/04 04:19:09;;;;;;;0.30;0.30;;;13.20;99.90;;;;;;5141732;27;20114;-67
2023/07/04 04:21:35;;;;;;;0.00;0.00;;;13.20;99.90;;;;;;5129151;27;20099;-67
2023/07/04 04:24:00;;;;;;;0.00;0.00;;;13.30;99.90;;;;;;5140233;27;20522;-67
2023/07/04 04:26:26;;;;;;;0.10;0.10;;;13.30;99.90;;;;;;5148101;27;20077;-67
2023/07/04 04:28:53;;;;;;;8.02;1.35;;;13.30;99.90;;;;;;5148995;27;20501;-67
2023/07/04 04:31:18;;;;;;;0.00;0.00;;;13.30;99.90;;;;;;5121436;27;20056;-67
2023/07/04 04:33:44;;;;;;;0.10;0.10;;;13.30;99.90;;;;;;5144174;27;20050;-67
2023/07/04 04:36:10;;;;;;;1.38;0.45;;;13.30;99.90;;;;;;5136943;27;20087;-67
2023/07/04 04:38:38;;;;;;;0.00;0.00;;;13.30;99.90;;;;;;5122096;27;20034;-67
2023/07/04 04:41:08;;;;;;;0.00;0.00;;;13.30;99.90;;;;;;5126217;27;20047;-67
2023/07/04 04:43:33;;;;;;;0.10;0.10;;;13.30;99.90;;;;;;5121481;27;20072;-67
2023/07/04 04:46:00;;;;;;;1.17;0.85;;;13.40;99.90;;;;;;5124965;27;20133;-66
2023/07/04 04:48:29;;;;;;;0.10;0.10;;;13.40;99.90;;;;;;5151456;27;20536;-66
2023/07/04 04:50:57;;;;;;;0.00;0.00;;;13.50;99.90;;;;;;5141434;27;20054;-66
2023/07/04 04:53:24;;;;;;;0.00;0.00;;;13.50;99.90;;;;;;5146413;27;20051;-66
2023/07/04 04:55:51;;;;;;;0.00;0.00;;;13.50;99.90;;;;;;5143686;27;20035;-66
2023/07/04 04:58:17;;;;;;;0.00;0.00;;;13.50;99.90;;;;;;5144874;27;20513;-67
2023/07/04 05:00:44;;;;;;;0.00;0.00;;;13.60;99.90;;;;;;5150601;27;20038;-67
2023/07/04 05:03:10;;;;;;;0.10;0.10;;;13.60;99.90;;;;;;5149893;27;20034;-67
2023/07/04 05:05:36;;;;;;;0.03;0.03;;;13.70;99.90;;;;;;5143583;27;20394;-67
2023/07/04 05:08:01;;;;;;;0.05;0.05;;;13.80;99.90;;;;;;5153011;27;20035;-66
2023/07/04 05:10:27;;;;;;;0.00;0.00;;;13.90;99.90;;;;;;5155435;27;20080;-66
2023/07/04 05:12:53;;;;;;;1.17;0.93;;;14.00;99.90;;;;;;5120017;27;20043;-66
2023/07/04 05:15:18;;;;;;;0.08;0.08;;;14.10;99.90;;;;;;5149682;27;20034;-67
2023/07/04 05:17:44;;;;;;;0.00;0.00;;;14.20;99.90;;;;;;5145342;27;20386;-67
2023/07/04 05:20:14;;;;;;;0.00;0.00;;;14.20;99.90;;;;;;5132720;27;20117;-67
2023/07/04 05:22:41;;;;;;;0.00;0.00;;;14.30;99.90;;;;;;5152669;27;20540;-67
2023/07/04 05:25:07;;;;;;;0.00;0.00;;;14.40;99.90;;;;;;5149073;27;20031;-67
2023/07/04 05:27:33;;;;;;;0.00;0.00;;;14.50;99.90;;;;;;5147510;27;20398;-66
2023/07/04 05:29:58;;;;;;;0.13;0.13;;;14.50;99.90;;;;;;5133029;27;20034;-67
2023/07/04 05:32:24;;;;;;;0.10;0.10;;;14.60;99.90;;;;;;5153596;27;20052;-66
2023/07/04 05:34:49;;;;;;;0.00;0.00;;;14.60;99.90;;;;;;5151434;27;20035;-66
2023/07/04 05:37:16;;;;;;;0.00;0.00;;;14.60;99.90;;;;;;5155159;27;20510;-67
2023/07/04 05:39:43;;;;;;;0.10;0.10;;;14.70;99.90;;;;;;5131884;27;20374;-67
2023/07/04 05:42:08;;;;;;;0.22;0.22;;;14.70;99.90;;;;;;5125156;27;20042;-67
2023/07/04 05:44:34;;;;;;;0.00;0.00;;;14.70;99.90;;;;;;5143854;27;20043;-67
2023/07/04 05:47:00;;;;;;;0.00;0.00;;;14.70;99.90;;;;;;5134926;27;20607;-67
2023/07/04 05:49:26;;;;;;;0.00;0.00;;;14.80;99.90;;;;;;5120883;27;20055;-67
2023/07/04 05:51:51;;;;;;;0.45;0.45;;;14.80;99.90;;;;;;5126284;27;20038;-67
2023/07/04 05:54:17;;;;;;;0.10;0.10;;;14.80;99.90;;;;;;5143593;27;20035;-67
2023/07/04 05:56:43;;;;;;;1.33;0.22;;;14.90;99.90;;;;;;5146450;27;20051;-67
2023/07/04 05:59:09;;;;;;;1.25;0.90;;;14.90;99.90;;;;;;5150456;27;20530;-67
2023/07/04 06:01:44;;;;;;;0.00;0.00;;;14.90;99.90;;;;;;5128771;27;20051;-67
2023/07/04 06:04:11;;;;;;;0.00;0.00;;;15.00;99.90;;;;;;5122986;27;20035;-67
2023/07/04 06:06:50;;;;;;;0.65;0.60;;;15.00;99.90;;;;;;5145132;27;20031;-67
2023/07/04 06:09:17;;;;;;;0.47;0.47;;;15.10;99.90;;;;;;5141464;27;20054;-67
2023/07/04 06:11:45;;;;;;;0.00;0.00;;;15.10;99.90;;;;;;5138406;27;20122;-67
2023/07/04 06:14:22;;;;;;;0.10;0.10;;;15.10;99.90;;;;;;5122218;27;20055;-67
2023/07/04 06:16:48;;;;;;;0.03;0.03;;;15.20;99.90;;;;;;5152179;27;20046;-67
2023/07/04 06:19:14;;;;;;;0.00;0.00;;;15.30;99.90;;;;;;5151360;27;20051;-66
2023/07/04 06:21:40;;;;;;;0.05;0.05;;;15.30;99.90;;;;;;5142843;27;20088;-66
2023/07/04 06:24:06;;;;;;;0.38;0.38;;;15.40;99.90;;;;;;5151315;27;20047;-66
2023/07/04 06:26:32;;;;;;;0.00;0.00;;;15.40;99.90;;;;;;5142776;27;20050;-66
2023/07/04 06:28:59;;;;;;;0.00;0.00;;;15.40;99.90;;;;;;5149086;27;20051;-65
2023/07/04 06:31:26;;;;;;;2.85;0.32;;;15.40;99.90;;;;;;5147247;27;20106;-65
2023/07/04 06:33:53;;;;;;;0.00;0.00;;;15.50;99.90;;;;;;5143328;27;20053;-66
2023/07/04 06:36:19;;;;;;;0.00;0.00;;;15.50;99.90;;;;;;5148633;27;20111;-66
2023/07/04 06:38:44;;;;;;;0.10;0.10;;;15.50;99.90;;;;;;5132004;27;20700;-66
2023/07/04 06:41:15;;;;;;;0.10;0.10;;;15.60;99.90;;;;;;5152081;27;20051;-66
2023/07/04 06:43:44;;;;;;;0.00;0.00;;;15.60;99.90;;;;;;5144842;27;20164;-66
2023/07/04 06:46:11;;;;;;;2.10;0.57;;;15.70;99.90;;;;;;5144066;27;20038;-66
2023/07/04 06:48:37;;;;;;;0.10;0.10;;;15.70;99.90;;;;;;5144693;27;20122;-66
2023/07/04 06:51:06;;;;;;;0.17;0.17;;;15.70;99.90;;;;;;5143393;27;20039;-66
2023/07/04 06:53:33;;;;;;;0.03;0.03;;;15.80;99.90;;;;;;5146043;27;20035;-66
2023/07/04 06:56:09;;;;;;;0.00;0.00;;;15.80;99.90;;;;;;5153095;27;20054;-66
2023/07/04 06:58:37;;;;;;;0.00;0.00;;;15.80;99.90;;;;;;5127422;27;20039;-66
2023/07/04 07:01:03;;;;;;;0.57;0.57;;;15.90;99.90;;;;;;5145867;27;20388;-66
2023/07/04 07:03:30;;;;;;;0.10;0.10;;;16.00;99.90;;;;;;5124903;27;20047;-66
2023/07/04 07:05:56;;;;;;;0.00;0.00;;;16.10;99.90;;;;;;5151490;27;20481;-65
2023/07/04 07:08:22;;;;;;;0.10;0.10;;;16.10;99.90;;;;;;5142573;27;20054;-66
2023/07/04 07:10:56;;;;;;;1.55;1.38;;;16.10;99.90;;;;;;5138159;27;20054;-66
2023/07/04 07:13:22;;;;;;;0.00;0.00;;;16.20;99.90;;;;;;5125008;27;20398;-66
2023/07/04 07:15:47;;;;;;;0.00;0.00;;;16.20;99.90;;;;;;5121080;27;20038;-66
2023/07/04 07:18:13;;;;;;;1.02;0.43;;;16.20;99.90;;;;;;5144993;27;20038;-66
2023/07/04 07:20:38;;;;;;;0.00;0.00;;;16.30;99.90;;;;;;5142939;27;20032;-66
2023/07/04 07:23:04;;;;;;;0.30;0.13;;;16.30;99.90;;;;;;5121290;27;20048;-66
2023/07/04 07:25:30;;;;;;;0.00;0.00;;;16.30;99.90;;;;;;5127406;27;20047;-66
2023/07/04 07:27:55;;;;;;;0.00;0.00;;;16.30;99.90;;;;;;5144909;27;20074;-66
2023/07/04 07:30:21;;;;;;;0.10;0.10;;;16.30;99.90;;;;;;5145186;27;20043;-66
2023/07/04 07:32:46;;;;;;;0.17;0.17;;;16.40;99.90;;;;;;5145554;27;20479;-66
2023/07/04 07:35:12;;;;;;;0.00;0.00;;;16.40;99.90;;;;;;5146203;27;20050;-66
2023/07/04 07:37:38;;;;;;;0.25;0.25;;;16.50;99.90;;;;;;5147617;27;20080;-66
2023/07/04 07:40:04;;;;;;;0.47;0.35;;;16.60;99.90;;;;;;5124163;27;20039;-66
2023/07/04 07:42:31;;;;;;;0.00;0.00;;;16.60;99.90;;;;;;5142278;27;20075;-65
2023/07/04 07:44:56;;;;;;;1.55;0.40;;;16.70;99.90;;;;;;5123946;27;20047;-66
2023/07/04 07:47:22;;;;;;;0.00;0.00;;;16.70;99.90;;;;;;5142477;27;20050;-66
2023/07/04 07:49:48;;;;;;;0.85;0.73;;;16.60;99.90;;;;;;5143276;27;20043;-66
2023/07/04 07:52:13;;;;;;;0.10;0.10;;;16.70;99.90;;;;;;5145206;27;20058;-66
2023/07/04 07:54:39;;;;;;;0.00;0.00;;;16.60;99.90;;;;;;5140413;27;20090;-65
2023/07/04 07:57:05;;;;;;;0.28;0.28;;;16.60;99.90;;;;;;5147991;27;20039;-65
2023/07/04 07:59:30;;;;;;;0.00;0.00;;;16.60;99.90;;;;;;5144845;27;20050;-65
2023/07/04 08:01:57;;;;;;;0.00;0.00;;;16.60;99.90;;;;;;5142481;27;20114;-66
2023/07/04 08:04:23;;;;;;;0.10;0.10;;;16.50;99.90;;;;;;5127754;27;20401;-66
2023/07/04 08:06:48;;;;;;;0.90;0.90;;;16.60;99.90;;;;;;5145360;27;20045;-66
2023/07/04 08:09:16;;;;;;;0.00;0.00;;;16.60;99.90;;;;;;5145905;27;20565;-66
2023/07/04 08:11:45;;;;;;;0.20;0.20;;;16.60;99.90;;;;;;5150986;27;20503;-66
2023/07/04 08:14:15;;;;;;;0.00;0.00;;;16.50;99.90;;;;;;5144079;27;20091;-65
2023/07/04 08:16:47;;;;;;;0.10;0.10;;;16.50;99.90;;;;;;5129654;27;20038;-66
2023/07/04 08:19:15;;;;;;;0.00;0.00;;;16.50;99.90;;;;;;5125707;27;20047;-66
2023/07/04 08:21:40;;;;;;;0.00;0.00;;;16.50;99.90;;;;;;5140432;27;20542;-65
2023/07/04 08:24:10;;;;;;;0.00;0.00;;;16.50;99.90;;;;;;5146307;27;20138;-66
2023/07/04 08:26:38;;;;;;;0.52;0.25;;;16.60;99.90;;;;;;5139797;27;20792;-66
2023/07/04 08:29:05;;;;;;;3.00;0.85;;;16.70;99.90;;;;;;5143797;27;20053;-66
2023/07/04 08:31:31;;;;;;;0.00;0.00;;;16.70;99.90;;;;;;5124402;27;20419;-66
2023/07/04 08:33:57;;;;;;;0.15;0.15;;;16.70;99.90;;;;;;5136007;27;20038;-66
2023/07/04 08:36:23;;;;;;;0.00;0.00;;;16.80;99.90;;;;;;5144336;27;20486;-65
2023/07/04 08:38:50;;;;;;;3.72;1.10;;;16.70;99.90;;;;;;5142962;27;20118;-65
2023/07/04 08:41:42;;;;;;;1.02;0.47;;;16.80;99.90;;;;;;5151614;27;20050;-66
2023/07/04 08:44:22;;;;;;;2.90;0.75;;;17.10;99.90;;;;;;5127788;27;20615;-66
2023/07/04 08:46:53;;;;;;;0.10;0.10;;;17.10;99.90;;;;;;5142254;27;20397;-66
2023/07/04 08:49:35;;;;;;;0.88;0.75;;;17.20;99.90;;;;;;5140256;27;20076;-66
2023/07/04 08:52:10;;;;;;;0.00;0.00;;;17.40;99.90;;;;;;5123857;27;20070;-65
2023/07/04 08:54:36;;;;;;;0.15;0.15;;;17.50;99.90;;;;;;5129436;27;20050;-65
2023/07/04 08:57:15;;;;;;;0.00;0.00;;;17.60;99.90;;;;;;5125752;27;20049;-66
2023/07/04 08:59:42;;;;;;;0.00;0.00;;;17.60;99.90;;;;;;5144287;27;20051;-65
2023/07/04 09:02:46;;;;;;;0.22;0.22;;;17.60;99.90;;;;;;5118392;27;20053;-65
2023/07/04 09:05:23;;;;;;;0.20;0.20;;;17.60;99.90;;;;;;5124959;27;20066;-66
2023/07/04 09:08:10;;;;;;;0.20;0.20;;;17.60;99.90;;;;;;5139592;27;20042;-65
2023/07/04 09:10:43;;;;;;;0.00;0.00;;;17.60;99.90;;;;;;5140751;27;20505;-65
2023/07/04 09:13:23;;;;;;;5.07;0.90;;;17.70;99.90;;;;;;5127784;27;20406;-65
2023/07/04 09:15:50;;;;;;;1.50;0.40;;;17.80;99.90;;;;;;5121062;27;20038;-65
2023/07/04 09:18:31;;;;;;;1.17;1.10;;;17.90;99.90;;;;;;5138904;27;20134;-65
2023/07/04 09:21:04;;;;;;;0.00;0.00;;;18.00;99.90;;;;;;5143689;27;20034;-65
2023/07/04 09:23:30;;;;;;;0.30;0.30;;;18.10;99.90;;;;;;5141664;27;20046;-66
2023/07/04 09:25:57;;;;;;;0.00;0.00;;;18.20;99.90;;;;;;5137993;27;20039;-66
2023/07/04 09:28:23;;;;;;;0.55;0.55;;;18.30;99.90;;;;;;5125873;27;20049;-65
2023/07/04 09:30:52;;;;;;;0.00;0.00;;;18.40;99.90;;;;;;5119535;27;20031;-64
2023/07/04 09:33:19;;;;;;;4.90;0.45;;;18.50;99.90;;;;;;5149057;27;20066;-64
2023/07/04 09:35:46;;;;;;;0.00;0.00;;;18.60;99.90;;;;;;5139766;27;20030;-65
2023/07/04 09:38:12;;;;;;;0.10;0.10;;;18.40;99.90;;;;;;5146906;27;20046;-64
2023/07/04 09:40:55;;;;;;;0.60;0.60;;;18.20;99.90;;;;;;5142850;27;20058;-65
2023/07/04 09:43:25;;;;;;;0.43;0.20;;;18.20;99.90;;;;;;5142499;27;20038;-65
2023/07/04 09:45:51;;;;;;;0.10;0.10;;;18.00;99.90;;;;;;5150056;27;20043;-65
2023/07/04 09:48:24;;;;;;;0.00;0.00;;;17.90;99.90;;;;;;5134224;27;20118;-65
2023/07/04 09:50:50;;;;;;;0.32;0.32;;;18.20;99.90;;;;;;5145578;27;20050;-65
2023/07/04 09:53:19;;;;;;;2.53;1.20;;;18.70;99.90;;;;;;5145453;27;20031;-65
2023/07/04 09:56:00;;;;;;;0.00;0.00;;;19.20;99.90;;;;;;5144013;27;20139;-65
2023/07/04 09:58:29;;;;;;;0.10;0.10;;;19.40;99.90;;;;;;5122645;27;20039;-65
2023/07/04 10:01:18;;;;;;;0.15;0.15;;;19.70;99.90;;;;;;5152556;27;20054;-65
2023/07/04 10:03:45;;;;;;;2.20;1.00;;;19.60;99.90;;;;;;5143840;27;20189;-65
2023/07/04 10:06:11;;;;;;;0.00;0.00;;;19.60;99.90;;;;;;5132283;27;20031;-65
2023/07/04 10:08:55;;;;;;;0.00;0.00;;;19.80;99.90;;;;;;5128669;27;20060;-65
2023/07/04 10:11:34;;;;;;;0.45;0.45;;;20.00;99.90;;;;;;5144140;27;20482;-65
2023/07/04 10:14:03;;;;;;;0.22;0.20;;;19.60;99.90;;;;;;5128792;27;20074;-65
2023/07/04 10:16:29;;;;;;;0.00;0.00;;;19.40;99.90;;;;;;5141247;27;20086;-65
2023/07/04 10:19:09;;;;;;;0.10;0.10;;;19.30;99.90;;;;;;5146512;27;20098;-64
2023/07/04 10:21:48;;;;;;;0.00;0.00;;;19.40;99.90;;;;;;5144086;27;20055;-65
2023/07/04 10:24:25;;;;;;;1.02;0.30;;;19.60;99.90;;;;;;5143780;27;20043;-64
2023/07/04 10:26:57;;;;;;;0.38;0.13;;;19.80;99.90;;;;;;5148317;27;20042;-65
2023/07/04 10:29:52;;;;;;;0.00;0.00;;;19.60;99.90;;;;;;5124598;27;20046;-68
2023/07/04 10:32:18;;;;;;;0.10;0.10;;;19.80;99.90;;;;;;5146962;27;20062;-65
2023/07/04 10:34:46;;;;;;;1.40;1.10;;;20.00;99.90;;;;;;5146622;27;20043;-65
2023/07/04 10:37:24;;;;;;;0.10;0.10;;;20.10;99.90;;;;;;5128529;27;20812;-65
2023/07/04 10:39:58;;;;;;;3.25;1.13;;;20.10;99.90;;;;;;5144087;27;20322;-65
2023/07/04 10:42:39;;;;;;;0.00;0.00;;;20.10;99.90;;;;;;5143343;27;20031;-65
2023/07/04 10:45:06;;;;;;;0.10;0.10;;;20.20;99.90;;;;;;5139991;27;20039;-65
2023/07/04 10:47:38;;;;;;;0.00;0.00;;;20.40;99.90;;;;;;5148287;27;20092;-65
2023/07/04 10:50:16;;;;;;;0.75;0.75;;;20.40;99.90;;;;;;5126842;27;20054;-65
2023/07/04 10:52:46;;;;;;;2.85;1.45;;;20.00;99.90;;;;;;5119328;27;20086;-66
2023/07/04 10:55:37;;;;;;;0.10;0.10;;;19.90;99.90;;;;;;5126656;27;20066;-65
2023/07/04 10:58:16;;;;;;;0.20;0.20;;;19.90;99.90;;;;;;5150793;27;20051;-64
2023/07/04 11:00:50;;;;;;;8.68;0.95;;;19.80;99.90;;;;;;5149596;27;20061;-66
2023/07/04 11:03:24;;;;;;;15.18;0.60;;;20.00;99.90;;;;;;5142919;27;20031;-64
2023/07/04 11:05:53;;;;;;;1.55;0.82;;;20.10;99.90;;;;;;5143123;27;20088;-65
2023/07/04 11:08:22;;;;;;;0.10;0.10;;;20.20;99.90;;;;;;5131792;27;20073;-65
2023/07/04 11:11:04;;;;;;;1.65;0.75;;;20.30;99.90;;;;;;5143558;27;20047;-65
2023/07/04 11:13:32;;;;;;;0.00;0.00;;;20.40;99.90;;;;;;5137179;27;20027;-64
2023/07/04 11:16:04;;;;;;;0.00;0.00;;;20.50;99.90;;;;;;5127243;27;20046;-65
2023/07/04 11:18:36;;;;;;;1.23;0.45;;;20.90;99.90;;;;;;5142132;27;20381;-65
2023/07/04 11:21:12;;;;;;;0.10;0.10;;;20.50;99.90;;;;;;5142144;27;20038;-65
2023/07/04 11:23:56;;;;;;;0.00;0.00;;;20.80;99.90;;;;;;5124119;27;20084;-65
2023/07/04 11:26:49;;;;;;;0.00;0.00;;;20.50;99.90;;;;;;5143138;27;20088;-65
2023/07/04 11:29:18;;;;;;;0.05;0.05;;;20.40;99.90;;;;;;5141477;27;20046;-65
2023/07/04 11:32:10;;;;;;;0.98;0.52;;;20.70;99.90;;;;;;5140753;27;20042;-65
2023/07/04 11:34:47;;;;;;;0.00;0.00;;;20.70;99.90;;;;;;5143024;27;20505;-65
2023/07/04 11:37:54;;;;;;;0.00;0.00;;;20.70;99.90;;;;;;5145685;27;20053;-65
2023/07/04 11:40:30;;;;;;;0.17;0.10;;;21.00;99.90;;;;;;5127152;27;20053;-64
2023/07/04 11:42:59;;;;;;;0.00;0.00;;;20.90;99.90;;;;;;5141864;27;20045;-65
2023/07/04 11:45:29;;;;;;;0.00;0.00;;;21.00;99.90;;;;;;5144704;27;20172;-65
2023/07/04 11:47:59;;;;;;;0.10;0.10;;;20.90;99.90;;;;;;5151828;27;20130;-65
2023/07/04 11:50:39;;;;;;;0.00;0.00;;;20.80;99.90;;;;;;5143562;27;20042;-65
2023/07/04 11:53:15;;;;;;;0.20;0.20;;;20.90;99.90;;;;;;5141788;27;20043;-65
2023/07/04 11:55:41;;;;;;;5.93;0.85;;;20.90;99.90;;;;;;5139074;27;20042;-64
2023/07/04 11:58:07;;;;;;;0.00;0.00;;;21.00;99.90;;;;;;5150960;27;20071;-64
2023/07/04 12:00:38;;;;;;;0.08;0.08;;;21.40;99.90;;;;;;5145221;27;20062;-64
2023/07/04 12:03:16;;;;;;;2.90;0.40;;;21.20;99.90;;;;;;5143271;27;20485;-64
2023/07/04 12:05:43;;;;;;;0.00;0.00;;;21.60;99.90;;;;;;5131518;27;20042;-64
2023/07/04 12:08:14;;;;;;;0.03;0.03;;;21.50;99.90;;;;;;5142511;27;20038;-64
2023/07/04 12:10:39;;;;;;;0.00;0.00;;;21.70;99.90;;;;;;5126266;27;20067;-64
2023/07/04 12:13:07;;;;;;;0.00;0.00;;;21.70;99.90;;;;;;5148226;27;20127;-64
2023/07/04 12:15:35;;;;;;;0.00;0.00;;;21.90;99.90;;;;;;5140190;27;20043;-65
2023/07/04 12:18:14;;;;;;;0.00;0.00;;;21.90;99.90;;;;;;5140954;27;20031;-64
2023/07/04 12:20:40;;;;;;;0.00;0.00;;;22.20;99.90;;;;;;5142068;27;20043;-64
2023/07/04 12:23:10;;;;;;;0.30;0.10;;;22.20;99.90;;;;;;5122616;27;20069;-65
2023/07/04 12:25:44;;;;;;;0.00;0.00;;;22.10;99.90;;;;;;5147631;27;20047;-66
2023/07/04 12:28:11;;;;;;;0.00;0.00;;;21.90;99.90;;;;;;5140685;27;20482;-65
2023/07/04 12:30:41;;;;;;;0.00;0.00;;;22.30;99.90;;;;;;5145240;27;20622;-65
2023/07/04 12:33:30;;;;;;;0.00;0.00;;;22.60;99.90;;;;;;5142547;27;20038;-65
2023/07/04 12:36:06;;;;;;;0.00;0.00;;;22.50;99.90;;;;;;5141599;27;20054;-64
2023/07/04 12:38:33;;;;;;;0.60;0.22;;;22.40;99.90;;;;;;5148047;27;20171;-65
2023/07/04 12:41:00;;;;;;;0.20;0.10;;;22.10;99.90;;;;;;5145056;27;20043;-64
2023/07/04 12:43:30;;;;;;;0.00;0.00;;;21.50;99.90;;;;;;5149582;27;20043;-64
2023/07/04 12:46:13;;;;;;;0.10;0.10;;;21.00;99.90;;;;;;5132815;27;20042;-64
2023/07/04 12:48:39;;;;;;;0.00;0.00;;;21.40;99.90;;;;;;5129882;27;20061;-65
2023/07/04 12:51:09;;;;;;;0.00;0.00;;;21.90;99.90;;;;;;5147393;27;20042;-65
2023/07/04 12:53:37;;;;;;;0.38;0.38;;;21.80;99.90;;;;;;5140568;27;20127;-64
2023/07/04 12:56:04;;;;;;;0.20;0.20;;;22.10;99.90;;;;;;5147232;27;20039;-64
2023/07/04 12:58:30;;;;;;;0.10;0.10;;;22.30;99.90;;;;;;5143650;27;20048;-64